Time;durP1;ratioP1;P1;durP2;ratioP2;P2;SDS_P1;SDS_P2;PMS_P1;PMS_P2;Temp;Humidity;BMP_temperature;BMP_pressure;BME280_temperature;BME280_humidity;BME280_pressure;Samples;Min_cycle;Max_cycle;Signal;HPM_P1;HPM_P2
2022/06/09 04:01:44;;;;;;;6.83;1.90;;;13.40;96.30;;;;;;5373819;23;20505;-74
2022/06/09 04:04:10;;;;;;;7.20;1.90;;;13.30;96.30;;;;;;4974375;28;20421;-74
2022/06/09 04:06:36;;;;;;;1.93;1.37;;;13.20;96.30;;;;;;4974311;28;20185;-74
2022/06/09 04:09:03;;;;;;;2.37;1.70;;;13.20;96.30;;;;;;4973757;28;20178;-75
2022/06/09 04:11:28;;;;;;;2.50;1.40;;;13.20;96.30;;;;;;4974188;28;20558;-75
2022/06/09 04:13:54;;;;;;;3.70;1.80;;;13.20;96.30;;;;;;4974701;28;20453;-77
2022/06/09 04:16:34;;;;;;;6.57;1.83;;;13.20;96.30;;;;;;4974564;28;20171;-75
2022/06/09 04:19:03;;;;;;;2.93;1.37;;;13.20;96.30;;;;;;4974013;28;20257;-77
2022/06/09 05:46:01;;;;;;;3.73;1.37;;;13.20;96.30;;;;;;4876379;29;20955;-73
2022/06/09 05:48:27;;;;;;;3.53;1.20;;;13.20;96.30;;;;;;4879766;29;20913;-73
2022/06/09 05:50:53;;;;;;;2.50;1.20;;;13.10;96.30;;;;;;4956794;28;20454;-76
2022/06/09 05:53:19;;;;;;;3.20;1.20;;;13.10;96.30;;;;;;4960786;29;20416;-73
2022/06/09 05:55:44;;;;;;;2.77;1.60;;;13.10;96.30;;;;;;4960356;29;20462;-73
2022/06/09 05:58:11;;;;;;;3.63;1.63;;;13.10;96.30;;;;;;4955158;29;20937;-73
2022/06/09 08:25:03;;;;;;;4.80;2.87;;;13.90;96.30;;;;;;5023897;23;20501;-76
2022/06/09 08:27:28;;;;;;;5.10;2.97;;;14.00;96.30;;;;;;4952196;28;20434;-76
2022/06/09 08:29:54;;;;;;;2.93;2.63;;;14.00;96.30;;;;;;4969234;28;20190;-77
2022/06/09 08:32:19;;;;;;;2.50;2.30;;;14.00;96.30;;;;;;4970559;28;20222;-76
2022/06/09 08:34:45;;;;;;;3.33;2.90;;;13.90;96.30;;;;;;4950798;28;20579;-77
2022/06/09 08:37:10;;;;;;;3.80;2.90;;;13.80;96.30;;;;;;4961478;28;20182;-78
2022/06/09 08:39:36;;;;;;;3.50;2.93;;;13.80;96.30;;;;;;4984832;28;20189;-77
2022/06/09 08:55:12;;;;;;;3.40;3.17;;;14.10;96.30;;;;;;5294944;23;20560;-75
2022/06/09 08:57:38;;;;;;;3.60;3.03;;;14.10;96.30;;;;;;4947112;28;20442;-78
2022/06/09 09:00:05;;;;;;;6.33;3.80;;;14.20;96.30;;;;;;4938417;28;20457;-75
2022/06/09 09:02:36;;;;;;;3.90;3.43;;;14.30;96.30;;;;;;4928699;28;20286;-75
2022/06/09 09:05:33;;;;;;;7.20;3.70;;;14.30;96.30;;;;;;4904973;29;20428;-75
2022/06/09 09:08:02;;;;;;;4.47;3.33;;;14.40;96.30;;;;;;4941819;29;20411;-75
2022/06/09 09:26:14;;;;;;;4.43;3.83;;;14.90;96.30;;;;;;5756863;23;20503;-77
2022/06/09 09:28:48;;;;;;;4.03;3.40;;;14.90;96.30;;;;;;4977526;28;20793;-77
2022/06/09 09:31:44;;;;;;;4.03;3.63;;;14.90;96.30;;;;;;4969401;28;20957;-75
2022/06/09 09:34:19;;;;;;;5.07;3.77;;;14.80;96.30;;;;;;4960095;28;20552;-75
2022/06/09 09:36:48;;;;;;;6.30;3.97;;;14.50;96.30;;;;;;4959012;28;20480;-75
2022/06/09 09:39:16;;;;;;;6.07;3.53;;;14.50;96.30;;;;;;4965352;28;20433;-76
2022/06/09 09:41:42;;;;;;;4.40;3.80;;;14.50;96.30;;;;;;5204761;23;20517;-75
2022/06/09 09:44:20;;;;;;;4.23;3.83;;;14.30;96.30;;;;;;4955328;28;20433;-75
2022/06/09 09:47:01;;;;;;;5.17;4.03;;;14.20;96.30;;;;;;4960011;28;20857;-77
2022/06/09 09:49:34;;;;;;;5.83;3.93;;;14.30;96.30;;;;;;4963669;28;21012;-75
2022/06/09 09:52:01;;;;;;;5.40;4.20;;;14.60;96.30;;;;;;4946102;28;20451;-77
2022/06/09 09:54:38;;;;;;;6.73;4.53;;;14.90;96.30;;;;;;4940671;28;20466;-77
2022/06/09 09:57:13;;;;;;;13.40;3.70;;;15.20;96.30;;;;;;4940142;28;20532;-76
2022/06/09 09:59:47;;;;;;;6.33;3.57;;;15.50;96.30;;;;;;4932520;29;20976;-75
2022/06/09 10:08:36;;;;;;;7.17;3.80;;;16.20;96.30;;;;;;4944924;29;20445;-75
2022/06/09 10:11:53;;;;;;;6.07;3.97;;;16.40;96.30;;;;;;4944084;29;20587;-76
2022/06/09 10:13:50;;;;;;;5.80;3.83;;;16.70;96.30;;;;;;4941902;29;20423;-77
2022/06/09 10:16:15;;;;;;;4.27;3.87;;;17.00;96.30;;;;;;4949354;28;20422;-76
2022/06/09 10:18:44;;;;;;;4.63;4.00;;;17.20;96.30;;;;;;4942607;29;20562;-74
2022/06/09 10:21:13;;;;;;;5.20;3.77;;;17.40;96.30;;;;;;4943943;29;20195;-76
2022/06/09 10:23:44;;;;;;;5.07;3.40;;;17.50;96.30;;;;;;4941995;29;20431;-75
2022/06/09 10:26:21;;;;;;;6.27;3.80;;;17.60;96.30;;;;;;4937391;29;21398;-76
2022/06/09 10:29:12;;;;;;;4.53;4.00;;;17.80;96.30;;;;;;4935654;29;20435;-77
2022/06/09 10:31:40;;;;;;;4.43;3.70;;;18.00;96.30;;;;;;4940754;29;20489;-76
2022/06/09 10:34:33;;;;;;;6.70;3.90;;;18.10;96.30;;;;;;4935601;29;20450;-77
2022/06/09 10:37:20;;;;;;;5.83;4.10;;;17.90;96.30;;;;;;4941741;29;20803;-77
2022/06/09 10:40:15;;;;;;;4.73;3.67;;;17.80;96.30;;;;;;4946119;29;20886;-77
2022/06/09 10:43:05;;;;;;;6.03;4.30;;;17.80;96.30;;;;;;4942661;29;20438;-76
2022/06/09 10:45:47;;;;;;;9.30;3.90;;;17.50;96.30;;;;;;4947713;29;20908;-76
2022/06/09 10:57:16;;;;;;;7.40;4.37;;;17.60;96.30;;;;;;4933911;29;20984;-76
2022/06/09 11:00:24;;;;;;;6.40;4.20;;;17.70;96.30;;;;;;4935639;28;20433;-75
2022/06/09 11:02:54;;;;;;;6.80;3.67;;;17.90;96.30;;;;;;4938257;29;20533;-75
2022/06/09 11:05:29;;;;;;;6.20;3.90;;;17.90;96.30;;;;;;4935065;29;20486;-75
2022/06/09 11:08:19;;;;;;;5.30;3.27;;;18.00;96.30;;;;;;4928909;29;20469;-75
2022/06/09 11:10:56;;;;;;;6.93;3.80;;;18.20;96.30;;;;;;4943458;29;20443;-73
2022/06/09 11:13:53;;;;;;;7.10;3.50;;;18.20;96.30;;;;;;4938754;29;20458;-75
2022/06/09 11:16:45;;;;;;;4.97;3.43;;;18.20;96.30;;;;;;4931165;29;20423;-75
2022/06/09 11:19:35;;;;;;;5.03;3.60;;;18.10;96.30;;;;;;4937302;28;20415;-75
2022/06/09 11:22:31;;;;;;;4.50;3.57;;;17.90;96.30;;;;;;4929638;29;20424;-76
2022/06/09 11:25:22;;;;;;;6.60;3.93;;;18.20;96.30;;;;;;4938471;29;20423;-76
2022/06/09 11:28:06;;;;;;;4.50;3.50;;;18.20;96.30;;;;;;4932940;29;20458;-75
2022/06/09 11:30:49;;;;;;;6.53;3.43;;;18.30;96.30;;;;;;4939752;29;20443;-75
2022/06/09 11:33:52;;;;;;;6.77;3.93;;;18.50;96.30;;;;;;4939040;28;20407;-76
2022/06/09 11:36:37;;;;;;;5.20;4.63;;;18.90;96.30;;;;;;4941360;29;20431;-75
2022/06/09 11:39:17;;;;;;;8.07;4.17;;;18.90;96.30;;;;;;4938578;29;20430;-76
2022/06/09 11:41:58;;;;;;;4.87;3.80;;;18.80;96.30;;;;;;4940377;29;20828;-74
2022/06/09 11:44:32;;;;;;;5.00;2.93;;;18.30;96.30;;;;;;4940435;29;20470;-76
2022/06/09 11:47:01;;;;;;;4.47;3.30;;;18.00;96.30;;;;;;4940937;29;20905;-76
2022/06/09 11:49:38;;;;;;;6.10;4.00;;;17.60;96.30;;;;;;4931331;29;20426;-76
2022/06/09 11:52:09;;;;;;;3.93;3.40;;;17.30;96.30;;;;;;4933914;29;21085;-75
2022/06/09 11:54:34;;;;;;;5.13;3.60;;;17.20;96.30;;;;;;4945051;29;20470;-76
2022/06/09 11:57:21;;;;;;;5.87;3.20;;;17.20;96.30;;;;;;4938470;29;20471;-76
2022/06/09 12:00:04;;;;;;;5.17;3.57;;;17.30;96.30;;;;;;4944949;28;20644;-76
2022/06/09 12:02:51;;;;;;;8.60;4.37;;;17.20;96.30;;;;;;4940628;29;20438;-76
2022/06/09 12:05:36;;;;;;;3.93;2.93;;;17.40;96.30;;;;;;4945044;29;20419;-76
2022/06/09 12:08:29;;;;;;;7.60;3.17;;;17.50;96.30;;;;;;4938779;29;20434;-75
2022/06/09 12:11:16;;;;;;;6.57;3.97;;;17.90;96.30;;;;;;4938051;29;20439;-76
2022/06/09 12:14:21;;;;;;;8.83;3.03;;;18.40;96.30;;;;;;4930942;29;20430;-76
2022/06/09 12:16:55;;;;;;;5.63;3.50;;;18.70;96.30;;;;;;4932330;29;20440;-76
2022/06/09 12:19:28;;;;;;;5.83;3.30;;;18.90;96.30;;;;;;4930008;28;21085;-76
2022/06/09 12:22:18;;;;;;;6.23;2.80;;;18.90;96.30;;;;;;4935615;29;20443;-76
2022/06/09 12:25:22;;;;;;;2.50;2.23;;;19.30;96.30;;;;;;4935321;29;20860;-75
2022/06/09 12:27:50;;;;;;;4.43;3.00;;;19.30;96.30;;;;;;4940230;29;20464;-76
2022/06/09 12:30:34;;;;;;;7.33;2.70;;;19.20;96.30;;;;;;4949884;28;20947;-76
2022/06/09 12:33:16;;;;;;;4.80;2.87;;;19.40;96.30;;;;;;4953200;29;20481;-77
2022/06/09 12:36:09;;;;;;;6.33;2.90;;;20.60;96.30;;;;;;4954117;29;20465;-77
2022/06/09 12:38:50;;;;;;;2.97;2.60;;;21.30;96.30;;;;;;4954275;28;20415;-76
2022/06/09 12:41:28;;;;;;;5.63;2.80;;;21.00;96.30;;;;;;4954347;28;20438;-76
2022/06/09 12:43:59;;;;;;;4.47;2.53;;;20.50;96.30;;;;;;4954425;28;20846;-76
2022/06/09 12:46:29;;;;;;;4.33;2.77;;;20.00;96.30;;;;;;4953157;29;20446;-76
2022/06/09 12:48:55;;;;;;;5.40;3.00;;;19.80;96.30;;;;;;4948849;28;20427;-76
2022/06/09 12:51:31;;;;;;;7.63;3.13;;;19.60;96.30;;;;;;4934983;29;20436;-76
2022/06/09 12:54:00;;;;;;;6.50;3.07;;;19.50;96.30;;;;;;4935029;29;20869;-76
2022/06/09 12:56:40;;;;;;;4.67;2.90;;;19.20;96.30;;;;;;4946608;29;20414;-76
2022/06/09 12:59:23;;;;;;;5.27;2.87;;;19.10;96.30;;;;;;4953417;28;20454;-75
2022/06/09 13:01:53;;;;;;;3.93;2.73;;;18.70;96.30;;;;;;4952838;28;20519;-76
2022/06/09 13:04:19;;;;;;;5.70;2.80;;;18.80;96.30;;;;;;4954258;28;20438;-76
2022/06/09 13:06:47;;;;;;;3.50;2.70;;;18.60;96.30;;;;;;4954134;29;20414;-76
2022/06/09 13:09:21;;;;;;;3.77;2.70;;;18.60;96.30;;;;;;4954008;29;20471;-76
2022/06/09 13:14:35;;;;;;;4.37;2.80;;;18.40;96.30;;;;;;4954138;29;20462;-76
2022/06/09 13:17:14;;;;;;;8.70;2.50;;;18.50;96.30;;;;;;4954028;28;20407;-76
2022/06/09 13:19:41;;;;;;;4.17;2.53;;;18.50;96.30;;;;;;4953707;28;20445;-75
2022/06/09 13:22:14;;;;;;;8.30;2.80;;;18.50;96.30;;;;;;4953993;28;20442;-74
2022/06/09 13:24:41;;;;;;;8.37;3.13;;;18.60;96.30;;;;;;4954087;28;20442;-76
2022/06/09 13:27:16;;;;;;;5.90;3.27;;;18.70;96.30;;;;;;4953943;28;20415;-76
2022/06/09 13:30:07;;;;;;;3.80;2.90;;;18.60;96.30;;;;;;4953760;28;20417;-76
2022/06/09 13:32:38;;;;;;;5.30;2.83;;;18.60;96.30;;;;;;4948234;29;20443;-75
2022/06/09 13:35:29;;;;;;;6.07;2.80;;;18.60;96.30;;;;;;4953928;28;20453;-74
2022/06/09 13:38:05;;;;;;;5.37;2.90;;;18.70;96.30;;;;;;4953704;28;20397;-77
2022/06/09 13:40:47;;;;;;;7.20;3.00;;;18.70;96.30;;;;;;4953880;28;20750;-75
2022/06/09 13:43:28;;;;;;;3.83;2.90;;;18.70;96.30;;;;;;4953891;28;20807;-77
2022/06/09 13:46:12;;;;;;;3.33;2.37;;;18.70;96.30;;;;;;4953820;28;20418;-76
2022/06/09 13:49:03;;;;;;;5.60;3.10;;;18.70;96.30;;;;;;4952250;29;20911;-76
2022/06/09 13:51:33;;;;;;;5.33;2.70;;;18.70;96.30;;;;;;4948752;29;20442;-76
2022/06/09 13:54:13;;;;;;;12.57;3.37;;;18.40;96.30;;;;;;4953696;29;20410;-76
2022/06/09 13:56:39;;;;;;;6.57;3.23;;;18.30;96.30;;;;;;4953780;28;20410;-76
2022/06/09 13:59:04;;;;;;;5.33;3.30;;;18.30;96.30;;;;;;4953344;29;20514;-75
2022/06/09 14:01:31;;;;;;;6.13;3.20;;;18.20;96.30;;;;;;4953492;29;20681;-75
2022/06/09 14:03:59;;;;;;;5.43;3.27;;;18.30;96.30;;;;;;4953055;28;20175;-76
2022/06/09 14:06:25;;;;;;;9.13;3.43;;;18.50;96.30;;;;;;4953544;28;20452;-77
2022/06/09 14:08:53;;;;;;;4.50;3.43;;;18.40;96.30;;;;;;4953243;28;20422;-75
2022/06/09 14:11:23;;;;;;;3.80;3.40;;;18.40;96.30;;;;;;4953620;28;20513;-76
2022/06/09 14:13:53;;;;;;;5.83;3.03;;;18.50;96.30;;;;;;4953665;28;20407;-76
2022/06/09 14:16:23;;;;;;;6.23;3.40;;;18.50;96.30;;;;;;4953392;29;20426;-75
2022/06/09 14:18:48;;;;;;;6.13;3.80;;;18.40;96.30;;;;;;4953193;28;20441;-75
2022/06/09 14:21:14;;;;;;;15.17;5.10;;;18.30;96.30;;;;;;4953506;28;20777;-76
2022/06/09 14:23:39;;;;;;;9.23;3.57;;;18.10;96.30;;;;;;4948015;29;20191;-75
2022/06/09 14:26:15;;;;;;;11.13;4.27;;;17.80;96.30;;;;;;4951153;29;20192;-75
2022/06/09 14:28:41;;;;;;;10.83;6.03;;;17.40;96.30;;;;;;4953220;29;20325;-75
2022/06/09 14:31:11;;;;;;;9.70;4.47;;;17.20;96.30;;;;;;4956612;29;20521;-76
2022/06/09 14:33:37;;;;;;;6.53;3.83;;;17.10;96.30;;;;;;4956680;28;20662;-76
2022/06/09 14:36:02;;;;;;;9.90;4.20;;;16.90;96.30;;;;;;4956623;29;20477;-76
2022/06/09 14:38:28;;;;;;;6.20;4.40;;;16.60;96.30;;;;;;4956477;29;20175;-76
2022/06/09 14:40:57;;;;;;;9.40;5.40;;;16.50;96.30;;;;;;4940741;29;20282;-78
2022/06/09 14:43:23;;;;;;;6.23;5.10;;;16.40;96.30;;;;;;4937966;29;20183;-78
2022/06/09 14:45:54;;;;;;;13.53;6.10;;;16.30;96.30;;;;;;4950201;29;20426;-79
2022/06/09 14:48:22;;;;;;;14.93;5.07;;;16.20;96.30;;;;;;4951769;29;20264;-78
2022/06/09 14:50:48;;;;;;;7.67;4.60;;;16.10;96.30;;;;;;4954645;29;20454;-79
2022/06/09 14:53:15;;;;;;;6.13;4.37;;;16.00;96.30;;;;;;4951322;28;20935;-79
2022/06/09 14:55:43;;;;;;;7.70;4.30;;;15.90;96.30;;;;;;4949883;29;20458;-79
2022/06/09 14:58:13;;;;;;;7.07;4.13;;;15.80;96.30;;;;;;4947940;29;20445;-79
2022/06/09 15:00:39;;;;;;;5.00;4.60;;;15.80;96.30;;;;;;4951421;29;20450;-80
2022/06/09 15:03:05;;;;;;;6.63;4.80;;;15.90;96.30;;;;;;4950550;29;21014;-80
2022/06/09 15:05:31;;;;;;;5.87;4.87;;;15.90;96.30;;;;;;4950437;29;20410;-80
2022/06/09 15:07:59;;;;;;;15.60;5.57;;;15.90;96.30;;;;;;4950935;29;20171;-80
2022/06/09 15:10:28;;;;;;;6.40;5.30;;;15.90;96.30;;;;;;4951008;29;20437;-79
2022/06/09 15:12:54;;;;;;;9.40;5.53;;;15.90;96.30;;;;;;4952618;28;20418;-79
2022/06/09 15:15:22;;;;;;;7.40;5.90;;;15.90;96.30;;;;;;4955458;29;20462;-76
2022/06/09 15:17:48;;;;;;;7.00;5.40;;;16.00;96.30;;;;;;4949433;28;20175;-76
2022/06/09 15:20:21;;;;;;;13.83;6.00;;;16.00;96.30;;;;;;4945307;29;20474;-76
2022/06/09 15:22:47;;;;;;;8.20;6.37;;;16.10;96.30;;;;;;4946340;29;20423;-76
2022/06/09 15:25:13;;;;;;;7.90;5.63;;;16.20;96.30;;;;;;4943241;29;20769;-78
2022/06/09 15:27:40;;;;;;;10.93;6.70;;;16.20;96.30;;;;;;4947919;29;20242;-79
2022/06/09 15:30:13;;;;;;;8.77;6.17;;;16.20;96.30;;;;;;4945812;28;20262;-78
2022/06/09 15:32:38;;;;;;;6.80;5.60;;;16.20;96.30;;;;;;4946255;29;20475;-79
2022/06/09 15:35:04;;;;;;;9.33;6.10;;;16.20;96.30;;;;;;4954600;29;20466;-79
2022/06/09 15:37:30;;;;;;;6.73;6.00;;;16.20;96.30;;;;;;4954401;29;20543;-78
2022/06/09 15:39:56;;;;;;;7.73;6.07;;;16.20;96.30;;;;;;4946158;29;20422;-79
2022/06/09 15:42:21;;;;;;;8.33;4.93;;;16.30;96.30;;;;;;4944007;29;20669;-80
2022/06/09 15:44:46;;;;;;;8.10;5.77;;;16.30;96.30;;;;;;4942159;29;20191;-79
2022/06/09 15:47:12;;;;;;;7.43;5.50;;;16.30;96.30;;;;;;4939107;29;20274;-78
2022/06/09 15:49:37;;;;;;;9.60;5.57;;;16.40;96.30;;;;;;4938833;29;20198;-79
2022/06/09 15:52:04;;;;;;;7.87;4.90;;;16.50;96.30;;;;;;4950540;29;20210;-79
2022/06/09 15:54:29;;;;;;;6.20;5.50;;;16.50;96.30;;;;;;4949857;29;20206;-79
2022/06/09 15:56:55;;;;;;;7.80;5.77;;;16.30;96.30;;;;;;4947511;29;20415;-78
2022/06/09 15:59:20;;;;;;;9.87;5.67;;;16.20;96.30;;;;;;4944105;29;20187;-78
2022/06/09 16:01:46;;;;;;;7.70;5.57;;;16.10;96.30;;;;;;4949472;29;20215;-78
2022/06/09 16:04:12;;;;;;;9.53;5.57;;;16.10;96.30;;;;;;4956285;29;20202;-79
2022/06/09 16:06:37;;;;;;;10.50;5.60;;;16.10;96.30;;;;;;4955328;29;20186;-79
2022/06/09 16:09:04;;;;;;;6.60;5.30;;;16.10;96.30;;;;;;4953751;29;20292;-78
2022/06/09 16:11:29;;;;;;;9.03;5.00;;;16.10;96.30;;;;;;4955092;28;20191;-78
2022/06/09 16:13:55;;;;;;;9.00;6.27;;;16.10;96.30;;;;;;4955033;29;20413;-78
2022/06/09 16:16:20;;;;;;;6.93;5.30;;;16.00;96.30;;;;;;4954762;29;20262;-78
2022/06/09 16:18:46;;;;;;;6.10;5.47;;;15.90;96.30;;;;;;4954406;29;20643;-79
2022/06/09 16:21:12;;;;;;;9.27;6.07;;;15.90;96.30;;;;;;4939262;29;20750;-79
2022/06/09 16:23:40;;;;;;;6.50;5.13;;;15.90;96.30;;;;;;4950464;29;20183;-79
2022/06/09 16:26:05;;;;;;;7.20;5.97;;;15.90;96.30;;;;;;4955210;28;20171;-77
2022/06/09 16:28:31;;;;;;;11.60;5.43;;;15.90;96.30;;;;;;4954370;29;20820;-77
2022/06/09 16:30:57;;;;;;;9.37;5.80;;;15.90;96.30;;;;;;4955677;28;20230;-77
2022/06/09 16:33:22;;;;;;;13.23;6.43;;;16.00;96.30;;;;;;4955236;29;20565;-75
2022/06/09 16:35:50;;;;;;;8.60;5.90;;;16.00;96.30;;;;;;4953248;29;20202;-76
2022/06/09 16:38:16;;;;;;;12.90;5.13;;;15.90;96.30;;;;;;4952640;29;20186;-75
2022/06/09 16:40:43;;;;;;;7.73;6.10;;;15.80;96.30;;;;;;4954688;28;20844;-75
2022/06/09 16:43:12;;;;;;;11.70;5.57;;;15.80;96.30;;;;;;4954674;28;20191;-75
2022/06/09 16:45:38;;;;;;;10.87;5.77;;;15.70;96.30;;;;;;4954304;28;20414;-75
2022/06/09 16:48:04;;;;;;;6.60;5.60;;;15.80;96.30;;;;;;4955601;29;20470;-78
2022/06/09 16:50:30;;;;;;;8.47;6.27;;;15.80;96.30;;;;;;4954792;28;20242;-78
2022/06/09 16:52:56;;;;;;;6.80;5.47;;;15.90;96.30;;;;;;4935958;29;20503;-78
2022/06/09 16:55:22;;;;;;;11.53;5.43;;;16.00;96.30;;;;;;4946241;28;20213;-78
2022/06/09 16:57:50;;;;;;;10.27;5.70;;;16.00;96.30;;;;;;4953450;29;20398;-78
2022/06/09 17:00:37;;;;;;;13.97;5.00;;;16.10;96.30;;;;;;4953370;28;20490;-77
2022/06/09 17:03:04;;;;;;;9.10;5.30;;;16.10;96.30;;;;;;4953949;28;20441;-77
2022/06/09 17:05:33;;;;;;;7.53;5.90;;;16.00;96.30;;;;;;4954448;28;20431;-77
2022/06/09 17:08:02;;;;;;;8.80;5.37;;;16.10;96.30;;;;;;4953428;28;20896;-78
2022/06/09 17:10:30;;;;;;;8.20;5.20;;;16.20;96.30;;;;;;4952608;29;20423;-78
2022/06/09 17:12:57;;;;;;;5.33;4.83;;;16.40;96.30;;;;;;4953867;28;20890;-78
2022/06/09 17:15:23;;;;;;;7.83;4.87;;;16.40;96.30;;;;;;4954063;28;20458;-79
2022/06/09 17:17:49;;;;;;;5.67;5.10;;;16.40;96.30;;;;;;4953430;29;20411;-78
2022/06/09 17:20:15;;;;;;;5.40;4.97;;;16.50;96.30;;;;;;4953834;29;20899;-78
2022/06/09 17:22:40;;;;;;;5.77;4.33;;;16.50;96.30;;;;;;4945330;29;20185;-78
2022/06/09 17:25:07;;;;;;;6.43;5.23;;;16.40;96.30;;;;;;4935648;29;20201;-79
2022/06/09 17:27:33;;;;;;;8.77;5.60;;;16.60;96.30;;;;;;4936996;29;20205;-80
2022/06/09 17:29:59;;;;;;;8.10;5.83;;;16.60;96.30;;;;;;4937231;29;20819;-80
2022/06/09 17:32:25;;;;;;;7.27;5.30;;;16.60;96.30;;;;;;4937682;29;20439;-79
2022/06/09 17:34:53;;;;;;;7.53;5.13;;;16.60;96.30;;;;;;4935972;29;20286;-79
2022/06/09 17:37:20;;;;;;;10.53;5.43;;;16.70;96.30;;;;;;4935043;29;20459;-77
2022/06/09 17:39:46;;;;;;;6.77;5.10;;;16.70;96.30;;;;;;4932880;29;20407;-77
2022/06/09 17:42:11;;;;;;;7.53;5.00;;;16.80;96.30;;;;;;4934449;29;20813;-76
2022/06/09 17:44:37;;;;;;;7.23;5.33;;;16.80;96.30;;;;;;4934514;29;20531;-78
2022/06/09 17:47:02;;;;;;;7.80;5.03;;;16.80;96.30;;;;;;4936034;29;20187;-78
2022/06/09 17:49:28;;;;;;;6.17;4.80;;;16.80;96.30;;;;;;4952236;29;20175;-77
2022/06/09 17:51:53;;;;;;;5.60;4.50;;;16.90;96.30;;;;;;4951161;28;20210;-78
2022/06/09 17:54:19;;;;;;;8.13;4.90;;;17.00;96.30;;;;;;4939832;29;20801;-78
2022/06/09 17:56:45;;;;;;;6.03;5.13;;;17.00;96.30;;;;;;4941836;29;20175;-78
2022/06/09 17:59:11;;;;;;;6.77;4.50;;;17.00;96.30;;;;;;4947185;28;20183;-78
2022/06/09 18:01:37;;;;;;;5.37;4.77;;;17.00;96.30;;;;;;4953939;29;20442;-77
2022/06/09 18:04:03;;;;;;;7.90;5.00;;;17.00;96.30;;;;;;4943964;29;20199;-77
2022/06/09 18:06:28;;;;;;;13.03;5.40;;;16.80;96.30;;;;;;4943186;28;20415;-77
2022/06/09 18:08:54;;;;;;;7.00;5.10;;;16.60;96.30;;;;;;4959841;28;20437;-78
2022/06/09 18:11:21;;;;;;;9.70;5.43;;;16.60;96.30;;;;;;4954229;28;20630;-77
2022/06/09 18:13:47;;;;;;;8.83;5.00;;;16.40;96.30;;;;;;4943445;29;20227;-77
2022/06/09 18:16:13;;;;;;;6.80;5.10;;;16.30;96.30;;;;;;4937335;29;20851;-77
2022/06/09 18:18:39;;;;;;;9.10;5.37;;;16.10;96.30;;;;;;4942826;29;20423;-77
2022/06/09 18:21:06;;;;;;;5.10;4.60;;;16.10;96.30;;;;;;4937940;29;20198;-77
2022/06/09 18:23:32;;;;;;;6.83;5.10;;;16.10;96.30;;;;;;4937923;29;20423;-77
2022/06/09 18:26:00;;;;;;;6.97;4.50;;;16.10;96.30;;;;;;4936714;29;20427;-77
2022/06/09 18:28:26;;;;;;;5.73;4.20;;;16.00;96.30;;;;;;4936808;29;20415;-77
2022/06/09 18:30:53;;;;;;;5.33;4.60;;;16.00;96.30;;;;;;4937551;29;20985;-78
2022/06/09 18:33:18;;;;;;;8.67;4.23;;;15.90;96.30;;;;;;4937751;29;20782;-77
2022/06/09 18:35:44;;;;;;;5.60;4.77;;;15.80;96.30;;;;;;4937650;29;20999;-77
2022/06/09 18:38:11;;;;;;;8.97;4.73;;;15.80;96.30;;;;;;4936996;29;20255;-77
2022/06/09 18:40:39;;;;;;;6.30;4.67;;;15.70;96.30;;;;;;4937364;29;20419;-77
2022/06/09 18:43:06;;;;;;;8.93;4.63;;;15.70;96.30;;;;;;4937528;29;20431;-76
2022/06/09 18:45:34;;;;;;;11.37;6.60;;;15.60;96.30;;;;;;4937433;29;20433;-77
2022/06/09 18:48:00;;;;;;;8.60;5.90;;;15.60;96.30;;;;;;4936546;29;20437;-78
2022/06/09 18:50:27;;;;;;;9.50;5.60;;;15.60;96.30;;;;;;4937353;29;20506;-77
2022/06/09 18:52:53;;;;;;;5.60;5.10;;;15.50;96.30;;;;;;4937503;29;20663;-78
2022/06/09 18:55:19;;;;;;;7.40;5.20;;;15.40;96.30;;;;;;4937231;29;20455;-78
2022/06/09 18:57:45;;;;;;;7.50;5.90;;;15.30;96.30;;;;;;4936811;29;20533;-77
2022/06/09 19:00:15;;;;;;;6.13;5.30;;;15.20;96.30;;;;;;4937322;29;20187;-78
2022/06/09 19:02:41;;;;;;;6.73;5.00;;;15.10;96.30;;;;;;4937216;29;20164;-77
2022/06/09 19:05:08;;;;;;;8.23;5.70;;;15.00;96.30;;;;;;4937163;29;20421;-77
2022/06/09 19:07:35;;;;;;;7.80;5.27;;;14.90;96.30;;;;;;4949233;28;20681;-75
2022/06/09 19:10:02;;;;;;;10.70;5.00;;;14.80;96.30;;;;;;4955432;28;20421;-75
2022/06/09 19:12:28;;;;;;;8.77;5.10;;;14.70;96.30;;;;;;4956196;28;20464;-75
2022/06/09 19:14:53;;;;;;;10.23;4.50;;;14.60;96.30;;;;;;4956113;29;21049;-75
2022/06/09 19:17:19;;;;;;;5.73;5.10;;;14.60;96.30;;;;;;4955857;29;20171;-75
2022/06/09 19:19:44;;;;;;;10.47;5.80;;;14.50;96.30;;;;;;4955467;28;20581;-76
2022/06/09 19:22:10;;;;;;;6.00;4.90;;;14.40;96.30;;;;;;4955997;29;20191;-76
2022/06/09 19:24:37;;;;;;;8.93;5.57;;;14.40;96.30;;;;;;4954872;29;20179;-77
2022/06/09 19:27:06;;;;;;;7.63;5.37;;;14.20;96.30;;;;;;4956121;28;20171;-78
2022/06/09 19:29:32;;;;;;;7.80;5.00;;;14.20;96.30;;;;;;4954186;29;20449;-77
2022/06/09 19:31:58;;;;;;;5.90;5.03;;;14.10;96.30;;;;;;4952817;28;20821;-77
2022/06/09 19:34:23;;;;;;;8.70;5.10;;;13.90;96.30;;;;;;4955447;29;20458;-77
2022/06/09 19:36:50;;;;;;;7.27;5.07;;;13.80;96.30;;;;;;4955793;29;20264;-78
2022/06/09 19:39:16;;;;;;;7.60;5.33;;;13.60;96.30;;;;;;4955509;28;20167;-77
2022/06/09 19:41:42;;;;;;;7.10;6.10;;;13.50;96.30;;;;;;4955439;28;20508;-77
2022/06/09 19:44:08;;;;;;;6.67;5.33;;;13.40;96.30;;;;;;4955687;28;20623;-77
2022/06/09 19:46:36;;;;;;;8.50;4.73;;;13.40;96.30;;;;;;4955572;29;20402;-76
2022/06/09 19:49:02;;;;;;;7.73;5.10;;;13.30;96.30;;;;;;4955453;28;20294;-76
2022/06/09 19:51:31;;;;;;;13.80;5.30;;;13.40;96.30;;;;;;4955655;28;20494;-77
2022/06/09 19:53:58;;;;;;;8.80;4.97;;;13.40;96.30;;;;;;4955742;28;20422;-77
2022/06/09 19:56:26;;;;;;;6.70;5.07;;;13.40;96.30;;;;;;4954321;29;20545;-78
2022/06/09 19:58:52;;;;;;;8.43;5.73;;;13.40;96.30;;;;;;4955281;28;20407;-78
2022/06/09 20:01:20;;;;;;;9.10;5.40;;;13.30;96.30;;;;;;4955248;28;20431;-77
2022/06/09 20:03:45;;;;;;;6.60;5.30;;;13.40;96.30;;;;;;4955336;28;20438;-77
2022/06/09 20:06:17;;;;;;;9.97;6.00;;;13.60;96.30;;;;;;4955245;29;20486;-78
2022/06/09 20:08:43;;;;;;;10.43;5.50;;;13.70;96.30;;;;;;4954947;28;20265;-78
2022/06/09 20:11:09;;;;;;;6.10;5.50;;;13.80;96.30;;;;;;4955137;28;20435;-78
2022/06/09 20:13:39;;;;;;;8.67;5.60;;;13.90;96.30;;;;;;4955498;29;20945;-77
2022/06/09 20:16:06;;;;;;;6.50;5.57;;;13.90;96.30;;;;;;4953759;29;20732;-77
2022/06/09 20:18:31;;;;;;;11.13;6.17;;;13.90;96.30;;;;;;4954841;28;20402;-77
2022/06/09 20:21:02;;;;;;;6.80;5.50;;;13.90;96.30;;;;;;4953990;28;20474;-78
2022/06/09 20:23:28;;;;;;;8.97;5.50;;;13.80;96.30;;;;;;4953758;29;20217;-77
2022/06/09 20:25:55;;;;;;;18.63;6.30;;;13.70;96.30;;;;;;4954906;28;20424;-77
2022/06/09 20:28:25;;;;;;;9.13;4.93;;;13.60;96.30;;;;;;4953306;29;20858;-77
2022/06/09 20:30:52;;;;;;;11.27;5.30;;;13.50;96.30;;;;;;4947594;28;20991;-77
2022/06/09 20:33:19;;;;;;;7.20;6.43;;;13.30;96.30;;;;;;4935449;29;20415;-77
2022/06/09 20:35:45;;;;;;;6.93;5.37;;;13.20;96.30;;;;;;4934358;29;20459;-78
2022/06/09 20:38:20;;;;;;;14.80;6.50;;;13.10;96.30;;;;;;4934153;29;20442;-77
2022/06/09 20:40:45;;;;;;;10.43;6.87;;;13.00;96.30;;;;;;4934298;29;20470;-77
2022/06/09 20:43:11;;;;;;;13.47;7.20;;;12.90;96.30;;;;;;4935417;29;20526;-76
2022/06/09 20:45:40;;;;;;;9.03;6.20;;;12.90;96.30;;;;;;4935521;29;20179;-77
2022/06/09 20:48:12;;;;;;;6.80;6.10;;;13.00;96.30;;;;;;4946523;29;20183;-76
2022/06/09 20:50:40;;;;;;;8.37;6.87;;;13.00;96.30;;;;;;4954520;28;20934;-76
2022/06/09 20:53:07;;;;;;;10.37;6.73;;;13.00;96.30;;;;;;4954385;28;20934;-76
2022/06/09 20:55:33;;;;;;;9.93;6.83;;;13.10;96.30;;;;;;4954355;28;20499;-76
2022/06/09 20:57:59;;;;;;;10.97;6.70;;;13.10;96.30;;;;;;4954165;29;20795;-76
2022/06/09 21:00:28;;;;;;;9.20;6.10;;;13.00;96.30;;;;;;4954352;28;20490;-76
2022/06/09 21:02:53;;;;;;;13.77;6.77;;;13.00;96.30;;;;;;4942634;29;20203;-76
2022/06/09 21:05:19;;;;;;;9.87;6.90;;;12.90;96.30;;;;;;4935102;29;20915;-76
2022/06/09 21:07:44;;;;;;;7.93;7.00;;;12.90;96.30;;;;;;4934795;29;20577;-76
2022/06/09 21:18:30;;;;;;;17.27;8.57;;;13.20;96.30;;;;;;4934757;29;20418;-76
2022/06/09 21:20:56;;;;;;;11.90;7.70;;;13.20;96.30;;;;;;4934999;29;20428;-77
2022/06/09 21:23:21;;;;;;;9.53;7.80;;;13.20;96.30;;;;;;4949167;29;20937;-76
2022/06/09 21:25:47;;;;;;;7.90;6.60;;;13.20;96.30;;;;;;4954045;29;20551;-77
2022/06/09 21:28:12;;;;;;;10.07;7.10;;;13.20;96.30;;;;;;4952655;29;20187;-78
2022/06/09 21:30:38;;;;;;;8.00;7.10;;;13.20;96.30;;;;;;4953993;28;20210;-78
2022/06/09 21:33:03;;;;;;;14.63;7.67;;;13.30;96.30;;;;;;4957656;29;20246;-77
2022/06/09 21:35:29;;;;;;;13.33;7.70;;;13.30;96.30;;;;;;4956550;29;20293;-76
2022/06/09 21:37:58;;;;;;;8.20;6.83;;;13.30;96.30;;;;;;4957695;29;20537;-77
2022/06/09 21:40:23;;;;;;;8.20;6.10;;;13.30;96.30;;;;;;4956583;28;20170;-76
2022/06/09 21:42:49;;;;;;;7.53;6.80;;;13.30;96.30;;;;;;4956804;29;20524;-77
2022/06/09 21:45:14;;;;;;;7.33;5.43;;;13.40;96.30;;;;;;4957135;29;20226;-76
2022/06/09 21:47:40;;;;;;;9.87;6.53;;;13.40;96.30;;;;;;4957596;29;20580;-76